Time;durP1;ratioP1;P1;durP2;ratioP2;P2;SDS_P1;SDS_P2;PMS_P1;PMS_P2;Temp;Humidity;BMP_temperature;BMP_pressure;BME280_temperature;BME280_humidity;BME280_pressure;Samples;Min_cycle;Max_cycle;Signal;HPM_P1;HPM_P2
2022/06/17 00:01:41;;;;;;;4.63;1.83;;;20.90;63.10;;;20.11;50.95;97976.34;5091271;28;20703;-81
2022/06/17 00:04:08;;;;;;;2.95;1.58;;;20.90;63.30;;;20.10;49.88;97977.44;5091133;28;20390;-82
2022/06/17 00:06:39;;;;;;;3.67;1.63;;;20.90;61.20;;;20.07;52.17;97986.09;5090963;28;20445;-81
2022/06/17 00:09:09;;;;;;;2.53;1.52;;;20.90;64.30;;;20.05;49.74;97989.09;5090447;28;20390;-82
2022/06/17 00:11:37;;;;;;;2.22;1.55;;;20.90;62.00;;;20.02;52.21;97989.66;5090896;28;20405;-82
2022/06/17 00:14:10;;;;;;;3.90;1.60;;;20.80;64.50;;;20.02;48.71;97984.28;5091349;28;20452;-82
2022/06/17 00:16:36;;;;;;;2.78;1.50;;;20.80;60.70;;;19.98;49.79;97987.88;5106665;28;20835;-81
2022/06/17 00:19:03;;;;;;;3.65;1.63;;;20.80;62.10;;;19.95;50.01;97983.88;5090410;28;20460;-81
2022/06/17 00:21:32;;;;;;;2.80;1.80;;;20.70;62.10;;;19.91;52.04;97979.41;5091006;28;20398;-81
2022/06/17 00:24:00;;;;;;;3.25;1.55;;;20.70;64.40;;;19.86;53.65;97987.53;5090950;28;20401;-82
2022/06/17 00:26:26;;;;;;;1.93;1.70;;;20.70;67.10;;;19.80;55.07;97994.09;5090988;28;20760;-81
2022/06/17 00:28:52;;;;;;;1.92;1.55;;;20.60;68.80;;;19.75;52.97;97988.84;5089991;28;20394;-81
2022/06/17 00:31:19;;;;;;;2.50;1.60;;;20.60;65.90;;;19.68;54.22;97989.22;5090806;28;20406;-81
2022/06/17 00:33:45;;;;;;;2.47;1.70;;;20.50;67.20;;;19.59;55.24;97985.59;5090452;28;20417;-81
2022/06/17 00:36:17;;;;;;;2.13;1.60;;;20.40;68.50;;;19.54;52.32;97986.50;5090572;28;20398;-81
2022/06/17 00:38:45;;;;;;;2.25;1.75;;;20.40;64.60;;;19.43;52.25;97985.03;5088761;28;20454;-81
2022/06/17 00:41:16;;;;;;;2.10;1.73;;;20.30;65.20;;;19.37;51.02;97996.16;5090474;28;20418;-82
2022/06/17 00:43:44;;;;;;;3.63;1.80;;;20.20;63.50;;;19.26;50.30;97998.19;5090628;28;20779;-81
2022/06/17 00:46:24;;;;;;;3.47;1.90;;;20.20;63.00;;;19.17;49.62;97999.94;5090229;28;20413;-80
2022/06/17 00:49:12;;;;;;;3.90;2.10;;;20.10;62.20;;;19.03;49.28;97999.84;5089536;28;20867;-81
2022/06/17 00:51:45;;;;;;;3.53;1.90;;;19.90;61.80;;;18.94;48.68;97998.94;5090414;28;20893;-80
2022/06/17 00:54:21;;;;;;;3.30;1.90;;;19.80;61.10;;;18.84;51.25;97999.06;5090441;28;20398;-81
2022/06/17 00:56:48;;;;;;;3.05;1.90;;;19.70;63.90;;;18.74;52.59;98000.00;5090345;28;20473;-81
2022/06/17 00:59:14;;;;;;;3.30;1.73;;;19.60;65.10;;;18.67;50.46;97996.88;5089475;28;20410;-81
2022/06/17 01:01:47;;;;;;;3.92;1.80;;;19.60;63.60;;;18.57;51.69;97988.94;5090206;28;20398;-81
2022/06/17 01:04:18;;;;;;;3.10;1.70;;;19.40;64.40;;;18.51;52.00;98000.78;5090584;28;20413;-81
2022/06/17 01:06:51;;;;;;;3.47;1.80;;;19.40;64.90;;;18.44;54.02;98000.34;5090031;28;20871;-81
2022/06/17 01:12:13;;;;;;;1.90;1.40;;;19.30;67.90;;;18.32;53.35;97997.28;5090195;28;20452;-81
2022/06/17 01:14:42;;;;;;;4.05;1.95;;;19.20;66.40;;;18.24;55.26;97993.34;5090227;28;20405;-81
2022/06/17 01:17:13;;;;;;;2.70;1.90;;;19.10;68.60;;;18.19;52.66;98002.22;5090382;28;20393;-81
2022/06/17 01:19:42;;;;;;;2.22;1.77;;;19.10;66.30;;;18.12;52.68;97996.41;5089713;28;20409;-81
2022/06/17 01:22:22;;;;;;;3.15;1.88;;;19.00;65.80;;;18.06;54.25;97988.72;5090031;28;20396;-81
2022/06/17 01:24:51;;;;;;;2.53;2.00;;;18.90;67.70;;;18.00;54.09;97987.19;5090158;28;20717;-81
2022/06/17 01:27:22;;;;;;;3.40;2.00;;;18.90;67.50;;;17.93;54.35;97976.81;5089960;28;20413;-81
2022/06/17 01:29:49;;;;;;;4.60;2.03;;;18.80;67.90;;;17.88;52.77;97979.53;5089296;28;20464;-81
2022/06/17 01:32:19;;;;;;;3.13;1.90;;;18.80;66.10;;;17.84;52.91;97973.13;5089683;28;20394;-81
2022/06/17 01:34:45;;;;;;;4.32;2.17;;;18.80;65.90;;;17.75;54.50;97970.28;5089818;28;20413;-81
2022/06/17 01:37:12;;;;;;;2.60;1.80;;;18.70;69.30;;;17.68;54.42;97975.16;5090106;28;20481;-81
2022/06/17 01:39:41;;;;;;;3.13;2.00;;;18.60;67.90;;;17.64;56.41;97978.69;5089036;28;20410;-81
2022/06/17 01:42:10;;;;;;;3.92;1.90;;;18.50;69.70;;;17.61;54.92;97981.91;5089641;28;20421;-81
2022/06/17 01:44:40;;;;;;;3.75;1.70;;;18.50;68.90;;;17.56;56.77;97977.41;5089913;28;20394;-81
2022/06/17 01:47:13;;;;;;;5.18;1.90;;;18.50;70.90;;;17.51;55.58;97980.13;5090025;28;20394;-81
2022/06/17 01:49:44;;;;;;;3.60;1.63;;;18.50;69.60;;;17.49;55.50;97984.16;5090827;28;20390;-81
2022/06/17 01:52:15;;;;;;;2.55;1.90;;;18.40;69.60;;;17.45;53.86;97978.53;5093458;28;20909;-81
2022/06/17 01:54:47;;;;;;;3.73;2.03;;;18.40;68.00;;;17.39;55.22;97983.16;5093661;28;20409;-81
2022/06/17 01:57:21;;;;;;;2.78;1.90;;;18.30;68.80;;;17.33;57.17;97984.28;5093327;28;20850;-81
2022/06/17 01:59:55;;;;;;;4.55;2.20;;;18.20;71.30;;;17.29;56.54;97983.22;5092699;28;20405;-81
2022/06/17 02:02:23;;;;;;;4.32;2.00;;;18.20;70.70;;;17.27;56.43;97985.41;5093287;28;20409;-81
2022/06/17 02:04:54;;;;;;;3.45;2.20;;;18.20;71.20;;;17.23;57.60;97991.56;5093499;28;20394;-81
2022/06/17 02:07:26;;;;;;;2.60;2.00;;;18.10;72.20;;;17.18;56.74;97992.41;5093422;28;20390;-81
2022/06/17 02:09:52;;;;;;;2.38;1.75;;;18.10;71.20;;;17.17;56.58;97987.34;5092493;28;20404;-81
2022/06/17 02:12:21;;;;;;;2.47;1.80;;;18.10;71.00;;;17.13;57.54;97999.69;5092945;28;20485;-81
2022/06/17 02:14:48;;;;;;;6.18;2.50;;;18.00;71.90;;;17.09;58.11;97994.06;5093013;28;20394;-81
2022/06/17 02:17:15;;;;;;;4.57;2.17;;;18.00;72.80;;;17.07;58.08;97987.41;5093087;28;20394;-81
2022/06/17 02:19:45;;;;;;;3.33;2.08;;;18.00;72.60;;;17.05;57.29;97984.22;5092341;28;20942;-81
2022/06/17 02:22:17;;;;;;;4.20;1.95;;;18.00;72.20;;;17.00;60.81;97991.19;5092817;28;20394;-81
2022/06/17 02:24:44;;;;;;;3.58;1.92;;;17.90;76.20;;;16.99;58.83;97978.09;5093015;28;20409;-81
2022/06/17 02:27:12;;;;;;;4.25;2.00;;;17.90;74.00;;;16.95;59.60;97971.69;5092830;28;20385;-81
2022/06/17 02:29:43;;;;;;;4.03;1.95;;;17.90;74.80;;;16.91;58.18;97971.47;5092354;28;20887;-81
2022/06/17 02:32:10;;;;;;;2.80;2.00;;;17.80;73.30;;;16.89;56.37;97962.13;5092767;28;20875;-81
2022/06/17 02:34:45;;;;;;;2.83;1.98;;;17.80;71.40;;;16.86;56.73;97966.13;5092687;28;20394;-81
2022/06/17 02:37:16;;;;;;;3.28;2.20;;;17.80;71.50;;;16.82;58.08;97965.09;5092999;28;20386;-81
2022/06/17 02:39:47;;;;;;;3.87;1.97;;;17.70;73.20;;;16.78;59.43;97969.41;5092161;28;20752;-81
2022/06/17 02:42:20;;;;;;;2.90;2.30;;;17.70;74.80;;;16.74;60.33;97976.38;5092586;28;20405;-81
2022/06/17 02:44:53;;;;;;;3.10;1.92;;;17.60;76.10;;;16.73;61.67;97973.97;5092901;28;20405;-81
2022/06/17 02:47:20;;;;;;;3.57;2.00;;;17.60;78.90;;;16.72;62.69;97981.19;5092770;28;20455;-81
2022/06/17 02:49:47;;;;;;;2.47;2.05;;;17.60;79.20;;;16.70;64.42;97982.53;5092024;28;20396;-81
2022/06/17 02:52:18;;;;;;;9.02;2.03;;;17.60;82.00;;;16.67;61.28;97981.22;5092286;28;20941;-81
2022/06/17 02:54:50;;;;;;;3.45;2.15;;;17.60;78.20;;;16.59;61.42;97974.56;5092447;28;20447;-81
2022/06/17 02:57:21;;;;;;;5.10;2.22;;;17.50;78.40;;;16.54;61.96;97971.88;5092421;28;20413;-81
2022/06/17 02:59:55;;;;;;;3.75;1.90;;;17.50;79.30;;;16.49;63.24;97963.91;5107297;28;20822;-81
2022/06/17 03:02:26;;;;;;;2.97;1.90;;;17.40;80.80;;;16.47;62.46;97966.03;5091324;28;20489;-81
2022/06/17 03:04:53;;;;;;;4.63;2.20;;;17.40;80.30;;;16.45;60.60;97970.09;5091984;28;20399;-81
2022/06/17 03:07:25;;;;;;;3.85;2.00;;;17.40;77.90;;;16.41;60.79;97975.16;5092337;28;20405;-81
2022/06/17 03:09:51;;;;;;;5.47;1.88;;;17.40;77.80;;;16.36;60.62;97971.72;5091531;28;20770;-81
2022/06/17 03:12:21;;;;;;;2.80;2.00;;;17.30;77.70;;;16.30;61.16;97978.16;5091399;28;20401;-81
2022/06/17 03:15:01;;;;;;;5.25;2.22;;;17.20;78.50;;;16.27;60.58;97985.66;5092108;28;20380;-80
2022/06/17 03:17:29;;;;;;;3.93;2.10;;;17.20;77.70;;;16.23;62.70;97984.59;5092002;28;20405;-80
2022/06/17 03:19:59;;;;;;;3.58;2.35;;;17.10;80.30;;;16.20;62.46;97995.81;5090986;28;20429;-81
2022/06/17 03:22:27;;;;;;;2.80;2.10;;;17.10;80.30;;;16.18;62.58;97994.47;5091775;28;20398;-81
2022/06/17 03:25:01;;;;;;;4.43;2.17;;;17.10;81.00;;;16.17;63.44;97993.69;5091680;28;20390;-81
2022/06/17 03:27:36;;;;;;;2.60;2.08;;;17.10;81.90;;;16.14;62.66;97999.59;5091935;28;20394;-81
2022/06/17 03:30:05;;;;;;;3.67;2.40;;;17.10;81.20;;;16.12;62.44;98008.94;5091147;28;20790;-81
2022/06/17 03:32:37;;;;;;;4.82;2.80;;;17.00;80.70;;;16.06;62.82;98010.81;5091637;28;20425;-81
2022/06/17 03:35:04;;;;;;;3.55;2.20;;;17.00;81.50;;;16.05;62.44;98011.09;5091618;28;20402;-81
2022/06/17 03:37:38;;;;;;;2.30;1.95;;;17.00;81.20;;;16.02;63.04;98009.75;5091772;28;20824;-81
2022/06/17 03:40:17;;;;;;;4.22;2.10;;;16.90;81.80;;;16.01;62.83;98008.16;5090805;28;20505;-81
2022/06/17 03:43:04;;;;;;;3.25;2.40;;;16.90;81.80;;;15.99;63.58;98015.66;5091631;28;20405;-81
2022/06/17 03:45:43;;;;;;;3.38;2.22;;;16.90;82.80;;;15.99;63.33;98018.31;5091399;28;20450;-81
2022/06/17 03:48:22;;;;;;;2.20;1.92;;;16.90;82.50;;;15.98;63.21;98022.06;5090837;28;20493;-81
2022/06/17 03:50:48;;;;;;;3.35;2.50;;;16.90;82.50;;;15.97;62.73;98017.78;5091188;28;20382;-81
2022/06/17 03:53:24;;;;;;;3.80;2.30;;;16.90;82.30;;;15.96;63.19;98016.16;5091598;28;20394;-81
2022/06/17 03:55:53;;;;;;;4.72;2.35;;;16.80;82.60;;;15.95;64.00;98025.25;5091232;28;20895;-81
2022/06/17 03:58:20;;;;;;;3.35;2.40;;;16.80;83.80;;;15.98;63.24;98019.38;5090819;28;20485;-81
2022/06/17 04:00:53;;;;;;;4.00;2.40;;;16.90;82.90;;;15.99;63.80;98022.84;5090886;28;20491;-81
2022/06/17 04:03:23;;;;;;;4.32;2.00;;;16.90;83.50;;;16.00;64.33;98025.25;5091183;28;20867;-81
2022/06/17 04:05:54;;;;;;;3.33;2.33;;;16.90;84.80;;;16.03;66.18;98029.25;5091039;28;20402;-81
2022/06/17 04:08:21;;;;;;;3.90;2.40;;;16.90;87.90;;;16.06;67.97;98037.53;5090547;28;20406;-81
2022/06/17 04:10:47;;;;;;;3.47;2.40;;;16.90;90.60;;;16.10;67.35;98038.56;5090660;28;20443;-81
2022/06/17 04:13:16;;;;;;;4.78;2.30;;;17.00;90.40;;;16.13;66.12;98037.25;5090743;28;20402;-81
2022/06/17 04:15:53;;;;;;;4.28;2.30;;;17.00;89.00;;;16.15;65.14;98035.09;5090841;28;20902;-81
2022/06/17 04:18:19;;;;;;;3.60;2.50;;;17.00;88.00;;;16.14;66.23;98036.97;5090335;28;20856;-81
2022/06/17 04:20:50;;;;;;;5.10;2.30;;;17.00;89.30;;;16.18;65.69;98050.56;5090467;28;20414;-81
2022/06/17 04:23:20;;;;;;;3.25;2.22;;;17.10;88.90;;;16.18;66.37;98051.38;5090718;28;20437;-81
2022/06/17 04:25:52;;;;;;;3.35;2.42;;;17.00;90.10;;;16.20;66.93;98054.59;5090648;28;20402;-81
2022/06/17 04:28:31;;;;;;;2.50;2.30;;;17.10;90.80;;;16.24;67.59;98060.97;5090002;28;20848;-81
2022/06/17 04:31:03;;;;;;;3.55;2.30;;;17.10;91.30;;;16.25;67.77;98065.25;5090231;28;20405;-81
2022/06/17 04:33:37;;;;;;;3.05;2.17;;;17.10;91.80;;;16.29;68.54;98067.41;5090982;28;20458;-81
2022/06/17 04:36:11;;;;;;;2.60;2.28;;;17.10;92.60;;;16.31;68.87;98060.72;5090461;28;20494;-81
2022/06/17 04:38:51;;;;;;;3.42;2.20;;;17.20;93.20;;;16.35;68.84;98074.31;5089577;28;20435;-81
2022/06/17 04:41:20;;;;;;;3.22;2.30;;;17.20;93.30;;;16.39;68.82;98073.50;5090046;28;20451;-81
2022/06/17 04:43:48;;;;;;;4.07;2.30;;;17.20;93.60;;;16.40;69.34;98072.44;5090579;28;20394;-81
2022/06/17 04:46:26;;;;;;;2.80;2.05;;;17.30;94.10;;;16.43;69.27;98077.25;5090207;28;20512;-81
2022/06/17 04:48:57;;;;;;;3.00;2.50;;;17.30;94.40;;;16.45;69.95;98074.31;5089764;28;20390;-81
2022/06/17 04:51:24;;;;;;;2.30;2.10;;;17.30;95.10;;;16.46;71.20;98082.06;5090365;28;20421;-81
2022/06/17 04:53:51;;;;;;;5.05;2.40;;;17.30;96.60;;;16.47;71.32;98074.81;5106184;28;20401;-81
2022/06/17 04:56:26;;;;;;;3.10;2.50;;;17.30;97.30;;;16.48;71.14;98079.91;5090353;28;20862;-81
2022/06/17 04:58:52;;;;;;;4.35;2.10;;;17.30;97.10;;;16.52;71.33;98082.84;5089788;28;20467;-81
2022/06/17 05:01:22;;;;;;;3.75;2.20;;;17.30;97.80;;;16.54;71.63;98084.16;5106211;28;20414;-81
2022/06/17 05:03:48;;;;;;;2.88;2.50;;;17.40;98.30;;;16.61;71.93;98086.59;5090616;28;20911;-81
2022/06/17 05:06:16;;;;;;;3.57;2.30;;;17.40;98.90;;;16.66;72.58;98083.88;5090335;28;20409;-81
2022/06/17 05:08:47;;;;;;;2.72;2.20;;;17.50;99.90;;;16.74;72.96;98077.19;5089313;28;20427;-81
2022/06/17 05:11:20;;;;;;;3.33;2.67;;;17.50;99.90;;;16.81;73.85;98078.47;5105606;28;20488;-81
2022/06/17 05:13:52;;;;;;;3.80;2.50;;;17.60;99.90;;;16.91;74.13;98080.31;5089984;28;20829;-81
2022/06/17 05:16:20;;;;;;;2.83;2.35;;;17.70;99.90;;;16.98;73.90;98086.97;5090032;28;20951;-81
2022/06/17 05:18:45;;;;;;;3.33;2.50;;;17.80;99.90;;;17.07;74.29;98089.84;5089705;28;20416;-82
2022/06/17 05:21:19;;;;;;;3.25;2.45;;;17.90;99.90;;;17.16;74.56;98092.75;5089797;28;20418;-82
2022/06/17 05:23:45;;;;;;;3.60;2.30;;;18.00;99.90;;;17.23;73.88;98093.25;5090350;28;20401;-82
2022/06/17 05:26:11;;;;;;;3.03;2.30;;;18.00;99.90;;;17.30;73.40;98089.19;5094198;28;20401;-82
2022/06/17 05:28:37;;;;;;;4.22;1.88;;;18.10;99.90;;;17.37;73.04;98091.53;5093557;28;20981;-82
2022/06/17 05:31:03;;;;;;;3.97;2.28;;;18.20;99.90;;;17.43;73.05;98090.47;5109661;28;20406;-82
2022/06/17 05:33:31;;;;;;;3.33;2.35;;;18.20;99.90;;;17.49;72.89;98097.38;5093809;28;20409;-82
2022/06/17 05:35:57;;;;;;;7.63;2.25;;;18.30;99.90;;;17.53;71.10;98098.41;5094051;28;20405;-82
2022/06/17 05:38:22;;;;;;;3.83;2.40;;;18.30;99.90;;;17.57;69.89;98099.47;5105389;22;21874;-73
2022/06/17 05:40:49;;;;;;;3.03;2.30;;;18.40;99.90;;;17.60;69.74;98101.56;5093299;28;20421;-73
2022/06/17 05:43:14;;;;;;;3.40;2.25;;;18.40;99.30;;;17.64;69.94;98099.97;5093649;28;20401;-73
2022/06/17 05:45:41;;;;;;;2.57;1.90;;;18.40;99.30;;;17.66;69.12;98100.50;5093650;28;20458;-73
2022/06/17 05:48:08;;;;;;;3.83;2.20;;;18.40;98.50;;;17.72;69.26;98114.66;5093084;28;20447;-73
2022/06/17 05:50:35;;;;;;;3.22;2.15;;;18.50;98.70;;;17.74;69.14;98115.94;5093313;28;20401;-75
2022/06/17 05:53:04;;;;;;;2.60;2.10;;;18.50;98.60;;;17.77;68.04;98119.97;5093631;28;20481;-74
2022/06/17 05:55:32;;;;;;;3.13;2.00;;;18.50;97.20;;;17.79;67.90;98129.31;5093382;28;20401;-74
2022/06/17 05:57:59;;;;;;;3.55;2.25;;;18.60;96.90;;;17.82;67.65;98130.63;5093316;28;20412;-75
2022/06/17 06:00:26;;;;;;;4.30;1.90;;;18.60;96.40;;;17.87;67.53;98122.56;5092562;28;20425;-74
2022/06/17 06:02:56;;;;;;;3.08;1.80;;;18.60;96.70;;;17.91;68.05;98126.28;5093297;28;20463;-74
2022/06/17 06:05:26;;;;;;;3.72;2.00;;;18.60;97.10;;;17.96;68.45;98128.13;5093426;28;20448;-74
2022/06/17 06:07:53;;;;;;;3.95;2.03;;;18.70;97.40;;;18.01;68.55;98125.41;5093325;28;20948;-74
2022/06/17 06:10:20;;;;;;;2.60;2.00;;;18.70;97.50;;;18.03;67.63;98126.72;5092374;28;20960;-74
2022/06/17 06:13:03;;;;;;;2.80;2.20;;;18.80;96.70;;;18.07;66.33;98130.44;5093210;28;20398;-74
2022/06/17 06:15:33;;;;;;;5.10;1.95;;;18.80;95.10;;;18.13;66.77;98134.66;5093087;28;20401;-74
2022/06/17 06:17:59;;;;;;;5.25;1.98;;;18.90;95.50;;;18.18;65.99;98125.78;5093052;28;20390;-75
2022/06/17 06:20:25;;;;;;;3.83;1.90;;;18.90;94.60;;;18.24;65.64;98124.66;5087985;28;20433;-74
2022/06/17 06:22:56;;;;;;;2.55;2.00;;;18.90;93.90;;;18.31;66.03;98110.94;5077109;28;20543;-75
2022/06/17 06:25:23;;;;;;;3.05;1.90;;;19.00;94.60;;;18.39;65.15;98110.31;5084158;28;20396;-75
2022/06/17 06:27:51;;;;;;;5.45;2.30;;;19.10;93.80;;;18.47;65.49;98107.81;5077949;28;20410;-75
2022/06/17 06:30:23;;;;;;;2.88;1.83;;;19.20;94.20;;;18.58;65.74;98113.09;5081393;28;20847;-73
2022/06/17 06:32:52;;;;;;;4.65;1.90;;;19.20;94.30;;;18.64;63.54;98103.94;5078700;28;20960;-74
2022/06/17 06:35:21;;;;;;;5.43;2.30;;;19.30;91.90;;;18.68;63.99;98104.94;5081503;28;20395;-74
2022/06/17 06:37:47;;;;;;;3.35;2.28;;;19.40;92.10;;;18.70;64.47;98117.00;5105418;28;20493;-74
2022/06/17 06:40:15;;;;;;;3.13;2.10;;;19.40;92.30;;;18.72;64.63;98119.41;5091608;28;20425;-73
2022/06/17 06:42:42;;;;;;;2.80;1.80;;;19.40;92.50;;;18.72;64.79;98109.44;5086662;28;20579;-74
2022/06/17 06:45:16;;;;;;;6.00;2.20;;;19.40;92.90;;;18.71;62.98;98110.53;5082749;28;20439;-74
2022/06/17 06:47:43;;;;;;;3.05;1.92;;;19.40;91.20;;;18.69;63.07;98110.03;5086909;28;20421;-74
2022/06/17 06:50:15;;;;;;;5.67;1.90;;;19.40;90.90;;;18.71;62.04;98115.09;5085463;28;20410;-75
2022/06/17 06:52:41;;;;;;;2.58;2.03;;;19.40;90.30;;;18.73;62.52;98112.91;5086199;28;20432;-75
2022/06/17 06:55:08;;;;;;;3.30;1.97;;;19.40;90.40;;;18.76;62.83;98121.22;5082796;28;20425;-74
2022/06/17 06:57:44;;;;;;;2.33;2.00;;;19.40;90.70;;;18.80;63.13;98116.06;5082519;28;20891;-76
2022/06/17 07:00:16;;;;;;;4.72;2.05;;;19.50;91.10;;;18.84;63.54;98122.47;5081513;28;20418;-74
2022/06/17 07:02:42;;;;;;;3.25;2.10;;;19.50;91.20;;;18.87;64.54;98121.88;5081871;28;20893;-72
2022/06/17 07:05:08;;;;;;;4.20;2.50;;;19.50;91.70;;;18.90;63.15;98124.78;5080354;28;20404;-72
2022/06/17 07:07:34;;;;;;;3.60;2.10;;;19.60;90.90;;;18.96;62.57;98125.53;5081504;28;20417;-75
2022/06/17 07:10:00;;;;;;;5.80;2.20;;;19.60;90.50;;;19.01;61.62;98130.06;5082374;28;21158;-74
2022/06/17 07:12:26;;;;;;;3.38;2.03;;;19.70;89.60;;;19.06;61.91;98138.03;5092805;28;20413;-74
2022/06/17 07:14:53;;;;;;;3.80;1.83;;;19.70;89.30;;;19.10;62.48;98142.53;5081905;28;20416;-74
2022/06/17 07:17:19;;;;;;;4.03;2.20;;;19.70;90.30;;;19.14;62.76;98140.88;5083835;28;20783;-74
2022/06/17 07:19:45;;;;;;;5.30;2.28;;;19.80;90.40;;;19.18;63.00;98141.88;5081447;28;20415;-74
2022/06/17 07:22:11;;;;;;;6.50;2.17;;;19.80;90.70;;;19.23;62.45;98135.66;5082576;28;20436;-74
2022/06/17 07:24:37;;;;;;;4.35;2.38;;;19.90;90.40;;;19.29;61.63;98139.88;5091571;28;20408;-74
2022/06/17 07:27:04;;;;;;;3.47;2.30;;;19.90;89.40;;;19.36;62.06;98137.63;5091673;28;20398;-74
2022/06/17 07:29:30;;;;;;;3.97;2.40;;;20.00;89.70;;;19.40;60.09;98141.31;5091012;28;20885;-72
2022/06/17 07:31:59;;;;;;;5.05;2.25;;;20.00;86.20;;;19.46;60.42;98134.81;5091478;28;20451;-73
2022/06/17 07:34:25;;;;;;;5.67;2.10;;;20.10;86.40;;;19.53;59.69;98135.28;5091138;28;20474;-73
2022/06/17 07:39:54;;;;;;;4.72;2.33;;;20.20;85.10;;;19.67;58.55;98132.66;5080927;28;20505;-73
2022/06/17 07:42:21;;;;;;;3.45;2.47;;;20.30;83.10;;;19.76;59.10;98132.81;5078958;28;20429;-72
2022/06/17 07:44:47;;;;;;;4.78;2.20;;;20.40;83.70;;;19.85;59.39;98133.72;5080311;28;20428;-73
2022/06/17 07:47:29;;;;;;;6.57;2.67;;;20.40;83.90;;;19.91;58.21;98130.69;5078997;28;20407;-75
2022/06/17 07:49:55;;;;;;;4.28;2.20;;;20.50;82.30;;;20.00;58.10;98133.47;5079034;28;20411;-73
2022/06/17 07:52:21;;;;;;;4.00;2.10;;;20.60;81.50;;;20.07;58.39;98139.31;5080560;28;20489;-72
2022/06/17 07:54:47;;;;;;;4.07;2.08;;;20.70;81.80;;;20.10;55.69;98136.81;5081798;28;20691;-75
2022/06/17 07:57:16;;;;;;;2.80;2.03;;;20.70;77.30;;;20.19;56.62;98136.94;5080799;28;20802;-74
2022/06/17 07:59:42;;;;;;;3.17;2.00;;;20.80;78.60;;;20.30;57.48;98141.03;5078609;28;20468;-74
2022/06/17 08:02:13;;;;;;;3.97;2.17;;;20.90;80.20;;;20.39;57.19;98135.81;5079539;28;20468;-74
2022/06/17 08:04:41;;;;;;;2.80;1.90;;;21.00;78.90;;;20.49;56.62;98146.41;5080585;28;20463;-74
2022/06/17 08:07:09;;;;;;;4.07;2.00;;;21.10;78.70;;;20.58;57.26;98146.50;5078518;28;20407;-74
2022/06/17 08:09:35;;;;;;;6.07;2.22;;;21.10;79.40;;;20.66;56.50;98151.22;5078855;28;20403;-74
2022/06/17 08:12:03;;;;;;;3.25;2.10;;;21.20;78.10;;;20.72;56.44;98145.44;5078153;28;20483;-74
2022/06/17 08:14:29;;;;;;;3.50;2.13;;;21.30;78.20;;;20.78;56.03;98143.44;5079289;28;20403;-74
2022/06/17 08:16:55;;;;;;;5.30;2.30;;;21.40;77.40;;;20.82;53.54;98141.75;5079877;28;20408;-74
2022/06/17 08:19:21;;;;;;;3.72;2.05;;;21.40;73.30;;;20.86;52.83;98143.53;5079615;28;20428;-72
2022/06/17 08:21:48;;;;;;;3.67;2.10;;;21.40;71.80;;;20.94;53.86;98149.31;5083847;28;20903;-74
2022/06/17 08:24:14;;;;;;;4.45;2.60;;;21.50;73.40;;;21.01;54.48;98144.34;5078299;28;20400;-74
2022/06/17 08:26:40;;;;;;;4.30;2.20;;;21.60;74.10;;;21.06;52.23;98145.03;5085884;28;20405;-74
2022/06/17 08:29:06;;;;;;;3.20;1.90;;;21.60;71.10;;;21.11;52.26;98149.53;5089768;28;20409;-73
2022/06/17 08:31:32;;;;;;;3.13;1.85;;;21.70;71.00;;;21.16;52.03;98144.84;5090091;28;20492;-73
2022/06/17 08:33:58;;;;;;;2.40;1.77;;;21.70;70.70;;;21.22;52.92;98148.22;5090470;28;20402;-73
2022/06/17 08:36:28;;;;;;;4.05;1.75;;;21.80;71.50;;;21.29;53.34;98145.94;5090565;28;20406;-73
2022/06/17 08:39:00;;;;;;;4.63;1.50;;;21.80;72.40;;;21.37;52.73;98147.91;5089769;28;20550;-73
2022/06/17 08:41:29;;;;;;;2.28;1.40;;;21.90;71.50;;;21.44;52.56;98142.09;5090301;28;20410;-76
2022/06/17 08:44:16;;;;;;;1.92;1.55;;;22.00;71.20;;;21.54;51.33;98136.50;5090395;28;20542;-74
2022/06/17 08:47:06;;;;;;;3.65;1.95;;;22.00;69.70;;;21.56;49.40;98137.81;5090319;28;20404;-75
2022/06/17 08:49:54;;;;;;;2.35;1.50;;;22.10;66.80;;;21.63;50.62;98146.25;5084438;28;20399;-75
2022/06/17 08:52:40;;;;;;;2.73;1.50;;;22.20;67.90;;;21.73;51.15;98139.81;5069807;28;20958;-73
2022/06/17 08:55:20;;;;;;;2.67;1.70;;;22.30;68.90;;;21.82;50.45;98132.63;5069907;28;20800;-75
2022/06/17 08:57:59;;;;;;;2.90;1.70;;;22.30;67.90;;;21.91;51.59;98132.69;5070024;28;20486;-73
2022/06/17 09:00:35;;;;;;;2.30;1.67;;;22.40;69.00;;;21.99;51.12;98135.47;5073178;28;20776;-73
2022/06/17 09:03:35;;;;;;;6.50;2.20;;;22.50;68.60;;;22.04;47.48;98137.25;5081320;28;20398;-74
2022/06/17 09:06:18;;;;;;;3.30;1.65;;;22.60;63.00;;;22.16;48.80;98137.50;5078530;28;20946;-74
2022/06/17 09:09:11;;;;;;;4.50;1.95;;;22.70;65.20;;;22.29;48.58;98130.44;5078100;28;20609;-73
2022/06/17 09:11:45;;;;;;;6.53;1.70;;;22.80;64.70;;;22.31;43.59;98141.72;5070194;28;20399;-75
2022/06/17 09:14:27;;;;;;;4.30;1.88;;;22.90;59.00;;;22.32;41.35;98137.91;5069224;28;20941;-72
2022/06/17 09:17:06;;;;;;;5.03;1.60;;;22.80;55.70;;;22.37;44.67;98135.88;5070294;28;20481;-74
2022/06/17 09:19:38;;;;;;;5.03;2.20;;;22.90;59.30;;;22.48;46.24;98135.63;5075227;28;20969;-73
2022/06/17 09:22:10;;;;;;;3.15;1.80;;;23.00;61.20;;;22.59;46.84;98132.34;5076569;28;20465;-74
2022/06/17 09:24:41;;;;;;;9.13;1.92;;;23.10;61.90;;;22.71;47.14;98137.13;5071891;28;20483;-72
2022/06/17 09:27:15;;;;;;;2.50;1.63;;;23.20;62.50;;;22.83;47.05;98139.28;5069343;28;20429;-75
2022/06/17 09:29:50;;;;;;;2.85;1.63;;;23.30;62.40;;;22.96;47.81;98133.78;5084457;28;20423;-75
2022/06/17 09:32:24;;;;;;;3.55;1.92;;;23.40;63.30;;;23.04;45.62;98130.31;5088875;28;20409;-75
2022/06/17 09:34:55;;;;;;;5.00;2.10;;;23.50;60.00;;;23.09;43.39;98132.84;5089582;28;20905;-74
2022/06/17 09:37:30;;;;;;;4.37;1.80;;;23.60;58.10;;;23.16;45.06;98133.19;5089832;28;20382;-75
2022/06/17 09:40:03;;;;;;;3.53;1.90;;;23.60;59.70;;;23.24;45.58;98141.63;5088871;28;20421;-74
2022/06/17 09:42:37;;;;;;;4.15;1.90;;;23.70;59.70;;;23.27;42.91;98135.59;5089701;28;20398;-75
2022/06/17 09:45:12;;;;;;;3.53;1.85;;;23.80;57.70;;;23.39;44.73;98133.84;5089689;28;20414;-75
2022/06/17 09:47:42;;;;;;;4.43;1.80;;;23.80;59.30;;;23.52;46.26;98137.59;5089727;28;20394;-75
2022/06/17 09:50:15;;;;;;;2.10;1.50;;;24.00;60.80;;;23.67;46.37;98144.44;5088900;28;20414;-75
2022/06/17 09:52:47;;;;;;;4.85;1.70;;;24.10;61.10;;;23.74;46.45;98144.75;5089752;28;20894;-74
2022/06/17 09:55:18;;;;;;;4.60;1.60;;;24.20;61.00;;;23.79;44.92;98133.75;5089422;28;20433;-74
2022/06/17 09:57:52;;;;;;;2.65;1.55;;;24.20;59.50;;;23.87;44.47;98135.66;5089683;28;20875;-74
2022/06/17 10:00:22;;;;;;;4.43;1.90;;;24.30;58.80;;;23.94;45.62;98133.28;5088571;28;20410;-74
2022/06/17 10:02:51;;;;;;;3.28;1.60;;;24.30;59.80;;;24.00;44.36;98133.91;5083282;28;20477;-73
2022/06/17 10:05:37;;;;;;;2.13;1.40;;;24.40;58.80;;;24.12;45.66;98126.75;5089525;28;20893;-73
2022/06/17 10:08:15;;;;;;;3.83;1.85;;;24.50;60.10;;;24.22;43.35;98121.00;5088933;28;20413;-72
2022/06/17 10:10:52;;;;;;;4.70;1.98;;;24.60;56.70;;;24.35;43.11;98121.94;5091059;28;20385;-73
2022/06/17 10:13:30;;;;;;;3.08;1.80;;;24.70;57.50;;;24.47;42.78;98113.16;5089288;28;20561;-73
2022/06/17 10:19:10;;;;;;;3.00;1.50;;;25.00;56.70;;;24.74;42.13;98115.41;5088579;28;20399;-73
2022/06/17 10:21:54;;;;;;;3.25;2.00;;;25.10;56.30;;;24.86;42.07;98112.84;5072542;28;20416;-73
2022/06/17 10:24:31;;;;;;;2.75;1.70;;;25.20;56.20;;;24.99;41.72;98125.38;5074039;28;20448;-73
2022/06/17 10:27:14;;;;;;;4.35;1.63;;;25.30;56.00;;;25.04;39.27;98129.81;5081326;28;20419;-73
2022/06/17 10:30:01;;;;;;;5.32;2.20;;;25.40;52.90;;;25.27;39.85;98120.25;5083401;28;20410;-73
2022/06/17 10:32:27;;;;;;;2.43;1.70;;;25.60;53.80;;;25.65;37.59;98122.09;5086120;28;20527;-72
2022/06/17 10:34:58;;;;;;;4.70;1.90;;;26.00;51.40;;;26.32;35.49;98118.31;5085535;28;20418;-72
2022/06/17 10:37:26;;;;;;;6.18;1.77;;;26.70;49.60;;;27.04;30.68;98123.06;5082966;28;20494;-73
2022/06/17 10:39:52;;;;;;;9.00;2.25;;;27.50;43.40;;;27.92;28.39;98119.50;5084572;28;20822;-73
2022/06/17 10:42:20;;;;;;;4.20;1.85;;;28.50;40.70;;;28.86;27.58;98122.41;5084617;28;20484;-74
2022/06/17 10:44:52;;;;;;;5.37;1.80;;;29.30;39.50;;;29.86;26.11;98124.59;5092531;28;20505;-73